createdAt,value
2023-01-04T00:01:15.564Z,95709.34
2023-01-04T00:03:47.972Z,95695.28
2023-01-04T00:06:16.233Z,95694.31
2023-01-04T00:08:45.986Z,95692.69
2023-01-04T00:11:14.698Z,95690.69
2023-01-04T00:13:41.777Z,95687.59
2023-01-04T00:16:14.312Z,95691.94
2023-01-04T00:18:43.179Z,95687.59
2023-01-04T00:21:14.776Z,95691.16
2023-01-04T00:23:46.409Z,95681.41
2023-01-04T00:26:14.850Z,95687.06
2023-01-04T00:28:50.012Z,95677.25
2023-01-04T00:31:20.964Z,95677.91
2023-01-04T00:33:48.130Z,95680.50
2023-01-04T00:36:17.913Z,95679.34
2023-01-04T00:38:45.007Z,95676.63
2023-01-04T00:41:41.919Z,95679.47
2023-01-04T00:44:07.504Z,95686.97
2023-01-04T00:46:36.852Z,95686.00
2023-01-04T00:49:04.694Z,95694.13
2023-01-04T00:51:32.342Z,95695.09
2023-01-04T00:54:00.570Z,95689.47
2023-01-04T00:56:30.818Z,95687.44
2023-01-04T00:58:58.132Z,95691.81
2023-01-04T01:01:25.512Z,95686.22
2023-01-04T01:03:56.725Z,95693.78
2023-01-04T01:06:26.640Z,95688.81
2023-01-04T01:08:58.993Z,95687.41
2023-01-04T01:11:26.188Z,95687.50
2023-01-04T01:13:58.040Z,95682.88
2023-01-04T01:16:51.899Z,95677.47
2023-01-04T01:19:12.130Z,95677.59
2023-01-04T01:21:39.550Z,95670.06
2023-01-04T01:24:07.245Z,95677.84
2023-01-04T01:26:34.372Z,95669.63
2023-01-04T01:29:03.965Z,95690.06
2023-01-04T01:31:30.965Z,95682.53
2023-01-04T01:33:58.041Z,95684.69
2023-01-04T01:36:30.992Z,95687.47
2023-01-04T01:38:59.051Z,95675.28
2023-01-04T01:41:27.800Z,95686.50
2023-01-04T01:44:27.480Z,95692.97
2023-01-04T01:46:55.544Z,95690.88
2023-01-04T01:49:37.449Z,95697.47
2023-01-04T01:52:31.281Z,95693.53
2023-01-04T01:55:06.742Z,95693.81
2023-01-04T01:57:34.802Z,95698.19
2023-01-04T02:00:11.975Z,95705.97
2023-01-04T02:02:45.693Z,95717.41
2023-01-04T02:05:12.889Z,95723.34
2023-01-04T02:07:39.846Z,95724.00
2023-01-04T02:10:09.734Z,95723.06
2023-01-04T02:12:36.932Z,95724.31
2023-01-04T02:15:06.771Z,95727.56
2023-01-04T02:17:41.755Z,95726.78
2023-01-04T02:20:40.571Z,95727.63
2023-01-04T02:23:11.146Z,95718.81
2023-01-04T02:25:58.061Z,95724.53
2023-01-04T02:28:44.111Z,95721.09
2023-01-04T02:31:41.649Z,95722.19
2023-01-04T02:34:27.197Z,95719.31
2023-01-04T02:37:00.320Z,95721.44
2023-01-04T02:39:48.062Z,95716.59
2023-01-04T02:42:38.779Z,95712.28
2023-01-04T02:45:08.588Z,95710.09
2023-01-04T02:47:36.594Z,95712.69
2023-01-04T02:50:06.061Z,95699.91
2023-01-04T02:52:34.011Z,95703.75
2023-01-04T02:55:01.094Z,95704.63
2023-01-04T02:57:49.003Z,95704.44
2023-01-04T03:00:30.985Z,95706.25
2023-01-04T03:03:11.480Z,95708.31
2023-01-04T03:06:02.981Z,95698.22
2023-01-04T03:08:49.982Z,95703.28
2023-01-04T03:11:21.699Z,95707.47
2023-01-04T03:13:49.186Z,95705.63
2023-01-04T03:16:18.673Z,95710.59
2023-01-04T03:18:48.269Z,95710.28
2023-01-04T03:21:15.494Z,95710.97
2023-01-04T03:23:45.209Z,95708.25
2023-01-04T03:26:20.620Z,95704.47
2023-01-04T03:28:47.619Z,95698.00
2023-01-04T03:31:39.359Z,95698.69
2023-01-04T03:34:06.343Z,95699.94
2023-01-04T03:37:11.432Z,95703.72
2023-01-04T03:40:21.816Z,95704.03
2023-01-04T03:43:13.672Z,95696.22
2023-01-04T03:45:50.125Z,95696.69
2023-01-04T03:48:22.951Z,95694.81
2023-01-04T03:51:02.911Z,95692.78
2023-01-04T03:53:39.569Z,95697.66
2023-01-04T03:56:07.799Z,95688.84
2023-01-04T03:58:34.957Z,95682.16
2023-01-04T04:01:06.937Z,95683.59
2023-01-04T04:03:36.706Z,95681.25
2023-01-04T04:06:04.235Z,95686.13
2023-01-04T04:08:33.329Z,95678.50
2023-01-04T04:11:01.811Z,95674.59
2023-01-04T04:13:28.853Z,95667.91
2023-01-04T04:15:56.720Z,95681.13
2023-01-04T04:18:26.745Z,95668.16
2023-01-04T04:20:59.882Z,95664.78
2023-01-04T04:23:29.642Z,95662.94
2023-01-04T04:25:56.701Z,95663.31
2023-01-04T04:28:29.351Z,95667.25
2023-01-04T04:30:56.455Z,95669.72
2023-01-04T04:33:23.422Z,95668.81
2023-01-04T04:35:51.609Z,95673.66
2023-01-04T04:38:18.472Z,95675.47
2023-01-04T04:40:51.306Z,95670.59
2023-01-04T04:43:18.769Z,95673.31
2023-01-04T04:45:45.811Z,95669.53
2023-01-04T04:48:12.867Z,95661.13
2023-01-04T04:50:40.065Z,95673.69
2023-01-04T04:53:09.757Z,95662.97
2023-01-04T04:55:39.456Z,95668.75
2023-01-04T04:58:06.507Z,95680.97
2023-01-04T05:00:33.508Z,95679.69
2023-01-04T05:03:01.331Z,95677.44
2023-01-04T05:05:28.620Z,95676.56
2023-01-04T05:07:58.441Z,95676.59
2023-01-04T05:10:33.560Z,95688.72
2023-01-04T05:13:03.294Z,95683.44
2023-01-04T05:15:38.050Z,95688.31
2023-01-04T05:18:05.388Z,95691.91
2023-01-04T05:20:34.300Z,95686.81
2023-01-04T05:23:01.399Z,95688.19
2023-01-04T05:25:28.562Z,95687.91
2023-01-04T05:27:56.443Z,95692.75
2023-01-04T05:30:27.935Z,95690.88
2023-01-04T05:32:54.996Z,95700.59
2023-01-04T05:35:26.862Z,95691.06
2023-01-04T05:37:56.689Z,95701.31
2023-01-04T05:40:24.172Z,95706.25
2023-01-04T05:42:51.146Z,95710.34
2023-01-04T05:45:24.025Z,95707.03
2023-01-04T05:47:51.874Z,95705.81
2023-01-04T05:50:20.209Z,95710.34
2023-01-04T05:52:47.301Z,95707.03
2023-01-04T05:55:14.759Z,95696.25
2023-01-04T05:57:45.683Z,95702.41
2023-01-04T06:00:18.590Z,95714.19
2023-01-04T06:02:45.806Z,95714.44
2023-01-04T06:05:15.203Z,95712.56
2023-01-04T06:07:42.281Z,95710.28
2023-01-04T06:10:15.129Z,95712.53
2023-01-04T06:12:45.736Z,95704.22
2023-01-04T06:15:12.833Z,95696.56
2023-01-04T06:17:47.730Z,95698.25
2023-01-04T06:20:15.254Z,95699.09
2023-01-04T06:22:45.076Z,95697.63
2023-01-04T06:25:14.396Z,95691.13
2023-01-04T06:27:48.229Z,95690.78
2023-01-04T06:30:20.925Z,95694.22
2023-01-04T06:32:49.030Z,95704.47
2023-01-04T06:35:16.786Z,95705.56
2023-01-04T06:37:49.618Z,95703.38
2023-01-04T06:40:16.768Z,95704.03
2023-01-04T06:42:43.724Z,95711.66
2023-01-04T06:45:12.299Z,95709.22
2023-01-04T06:47:42.962Z,95715.44
2023-01-04T06:50:10.396Z,95712.97
2023-01-04T06:52:37.496Z,95707.66
2023-01-04T06:55:06.120Z,95709.91
2023-01-04T06:57:36.595Z,95715.03
2023-01-04T07:00:09.827Z,95722.84
2023-01-04T07:02:36.688Z,95719.03
2023-01-04T07:05:04.977Z,95729.97
2023-01-04T07:07:32.910Z,95733.25
2023-01-04T07:10:03.897Z,95724.28
2023-01-04T07:12:38.709Z,95739.19
2023-01-04T07:15:38.089Z,95737.28
2023-01-04T07:17:53.410Z,95746.88
2023-01-04T07:20:20.540Z,95738.41
2023-01-04T07:22:47.608Z,95747.94
2023-01-04T07:25:14.303Z,95748.28
2023-01-04T07:27:44.004Z,95751.06
2023-01-04T07:30:12.773Z,95750.56
2023-01-04T07:32:39.567Z,95744.84
2023-01-04T07:35:07.041Z,95745.34
2023-01-04T07:37:33.906Z,95751.31
2023-01-04T07:40:03.570Z,95763.25
2023-01-04T07:42:31.332Z,95759.47
2023-01-04T07:45:00.889Z,95755.09
2023-01-04T07:47:28.553Z,95762.09
2023-01-04T07:49:55.266Z,95763.66
2023-01-04T07:52:22.461Z,95758.44
2023-01-04T07:54:50.381Z,95759.19
2023-01-04T07:57:17.469Z,95762.53
2023-01-04T07:59:44.247Z,95762.50
2023-01-04T08:02:12.231Z,95772.94
2023-01-04T08:04:39.540Z,95763.66
2023-01-04T08:07:06.370Z,95758.69
2023-01-04T08:09:33.484Z,95768.22
2023-01-04T08:12:00.643Z,95766.28
2023-01-04T08:14:27.678Z,95758.78
2023-01-04T08:16:54.761Z,95761.59
2023-01-04T08:19:21.637Z,95761.84
2023-01-04T08:21:48.550Z,95760.63
2023-01-04T08:24:16.890Z,95752.47
2023-01-04T08:26:48.726Z,95758.66
2023-01-04T08:29:17.777Z,95755.25
2023-01-04T08:31:44.980Z,95767.59
2023-01-04T08:34:12.121Z,95765.91
2023-01-04T08:36:52.726Z,95767.97
2023-01-04T08:39:20.943Z,95786.34
2023-01-04T08:42:06.861Z,95777.34
2023-01-04T08:44:39.614Z,95791.34
2023-01-04T08:47:06.907Z,95790.75
2023-01-04T08:49:35.530Z,95794.88
2023-01-04T08:52:02.652Z,95792.00
2023-01-04T08:54:34.351Z,95793.56
2023-01-04T08:57:01.044Z,95786.47
2023-01-04T08:59:32.977Z,95780.19
2023-01-04T09:02:05.148Z,95780.59
2023-01-04T09:04:33.072Z,95780.34
2023-01-04T09:12:24.651Z,95775.31
2023-01-04T09:14:51.652Z,95777.72
2023-01-04T09:17:46.528Z,95779.78
2023-01-04T09:20:23.670Z,95771.53
2023-01-04T09:22:50.732Z,95769.25
2023-01-04T09:25:18.635Z,95782.88
2023-01-04T09:27:45.436Z,95771.69
2023-01-04T09:30:12.642Z,95773.44
2023-01-04T09:32:39.640Z,95775.41
2023-01-04T09:35:08.023Z,95770.44
2023-01-04T09:37:35.088Z,95779.22
2023-01-04T09:40:01.864Z,95776.03
2023-01-04T09:42:37.491Z,95784.28
2023-01-04T09:45:25.753Z,95785.19
2023-01-04T09:47:58.073Z,95791.66
2023-01-04T09:50:27.620Z,95788.50
2023-01-04T09:53:03.501Z,95788.31
2023-01-04T09:55:49.098Z,95801.63
2023-01-04T09:58:16.673Z,95795.44
2023-01-04T10:01:05.998Z,95797.06
2023-01-04T10:03:40.366Z,95800.75
2023-01-04T10:06:10.075Z,95795.09
2023-01-04T10:08:37.559Z,95794.91
2023-01-04T10:11:25.875Z,95790.75
2023-01-04T10:13:56.863Z,95778.34
2023-01-04T10:17:20.273Z,95776.09
2023-01-04T10:23:43.266Z,95767.09
2023-01-04T10:26:31.909Z,95762.06
2023-01-04T10:32:22.940Z,95764.84
2023-01-04T10:34:52.388Z,95758.00
2023-01-04T10:37:31.584Z,95750.72
2023-01-04T10:39:58.478Z,95744.28
2023-01-04T10:42:39.331Z,95742.31
2023-01-04T10:45:17.847Z,95741.69
2023-01-04T10:48:24.636Z,95741.53
2023-01-04T10:51:03.561Z,95731.38
2023-01-04T10:53:51.146Z,95729.22
2023-01-04T10:56:38.368Z,95729.59
2023-01-04T10:59:44.298Z,95737.59
2023-01-04T11:02:27.193Z,95740.81
2023-01-04T11:05:04.748Z,95729.28
2023-01-04T11:07:41.783Z,95728.91
2023-01-04T11:10:12.904Z,95728.50
2023-01-04T11:12:39.768Z,95730.75
2023-01-04T11:15:08.040Z,95727.16
2023-01-04T11:17:35.663Z,95736.06
2023-01-04T11:20:02.844Z,95723.91
2023-01-04T11:22:51.479Z,95727.13
2023-01-04T11:25:36.194Z,95715.06
2023-01-04T11:28:09.240Z,95712.09
2023-01-04T11:30:51.296Z,95708.88
2023-01-04T11:33:19.659Z,95715.44
2023-01-04T11:35:49.252Z,95709.19
2023-01-04T11:38:23.545Z,95711.72
2023-01-04T11:41:08.107Z,95709.31
2023-01-04T11:43:36.521Z,95709.88
2023-01-04T11:46:07.210Z,95710.06
2023-01-04T11:48:47.239Z,95699.41
2023-01-04T11:51:30.048Z,95699.31
2023-01-04T11:53:59.398Z,95698.75
2023-01-04T11:56:31.686Z,95683.53
2023-01-04T11:59:22.615Z,95677.41
2023-01-04T12:02:58.649Z,95679.00
2023-01-04T12:05:28.768Z,95682.94
2023-01-04T12:07:58.387Z,95677.53
2023-01-04T12:10:52.974Z,95675.34
2023-01-04T12:13:22.493Z,95675.78
2023-01-04T12:16:05.190Z,95674.53
2023-01-04T12:18:43.621Z,95674.91
2023-01-04T12:21:24.884Z,95671.53
2023-01-04T12:23:54.228Z,95676.31
2023-01-04T12:26:22.104Z,95672.03
2023-01-04T12:28:50.733Z,95668.66
2023-01-04T12:31:21.791Z,95660.44
2023-01-04T12:33:50.428Z,95669.56
2023-01-04T12:36:21.329Z,95661.72
2023-01-04T12:39:04.449Z,95664.44
2023-01-04T12:41:49.673Z,95663.75
2023-01-04T12:44:39.188Z,95655.47
2023-01-04T12:47:39.855Z,95657.72
2023-01-04T12:50:20.508Z,95660.59
2023-01-04T12:53:29.904Z,95663.59
2023-01-04T12:55:53.121Z,95666.88
2023-01-04T12:58:51.154Z,95670.44
2023-01-04T13:01:29.443Z,95664.34
2023-01-04T13:04:05.555Z,95666.91
2023-01-04T13:06:38.113Z,95664.00
2023-01-04T13:09:16.127Z,95662.19
2023-01-04T13:12:03.773Z,95659.63
2023-01-04T13:14:37.002Z,95661.50
2023-01-04T13:17:23.279Z,95648.63
2023-01-04T13:19:50.262Z,95651.44
2023-01-04T13:22:51.082Z,95644.69
2023-01-04T13:25:18.213Z,95639.03
2023-01-04T13:28:02.177Z,95633.81
2023-01-04T13:30:37.343Z,95626.63
2023-01-04T13:33:26.161Z,95618.38
2023-01-04T13:36:05.355Z,95613.72
2023-01-04T13:38:32.204Z,95615.91
2023-01-04T13:41:00.426Z,95606.94
2023-01-04T13:43:41.869Z,95596.53
2023-01-04T13:46:22.143Z,95606.56
2023-01-04T13:48:52.968Z,95617.03
2023-01-04T13:51:30.610Z,95615.16
2023-01-04T13:54:16.341Z,95616.44
2023-01-04T13:56:55.199Z,95607.75
2023-01-04T13:59:34.429Z,95612.72
2023-01-04T14:02:18.515Z,95607.88
2023-01-04T14:04:46.650Z,95615.84
2023-01-04T14:07:21.254Z,95620.72
2023-01-04T14:09:53.731Z,95625.41
2023-01-04T14:12:45.387Z,95624.97
2023-01-04T14:15:55.055Z,95620.72
2023-01-04T14:18:26.995Z,95623.69
2023-01-04T14:20:54.813Z,95612.59
2023-01-04T14:23:35.934Z,95622.03
2023-01-04T14:26:08.094Z,95620.00
2023-01-04T14:28:37.474Z,95614.56
2023-01-04T14:31:09.576Z,95617.31
2023-01-04T14:33:46.155Z,95625.16
2023-01-04T14:36:21.729Z,95630.09
2023-01-04T14:39:09.973Z,95638.03
2023-01-04T14:41:48.870Z,95635.41
2023-01-04T14:44:23.160Z,95634.53
2023-01-04T14:46:58.213Z,95635.03
2023-01-04T14:49:25.226Z,95642.00
2023-01-04T14:51:54.001Z,95636.06
2023-01-04T14:54:24.935Z,95629.81
2023-01-04T14:57:11.990Z,95635.84
2023-01-04T15:05:03.275Z,95649.59
2023-01-04T15:07:41.905Z,95647.91
2023-01-04T15:10:19.252Z,95644.13
2023-01-04T15:12:47.426Z,95644.78
2023-01-04T15:15:17.203Z,95643.94
2023-01-04T15:18:02.831Z,95637.84
2023-01-04T15:20:33.337Z,95634.84
2023-01-04T15:23:03.812Z,95628.28
2023-01-04T15:25:42.471Z,95628.19
2023-01-04T15:28:12.961Z,95622.69
2023-01-04T15:30:44.183Z,95635.69
2023-01-04T15:33:16.568Z,95630.75
2023-01-04T15:35:44.359Z,95633.94
2023-01-04T15:38:16.120Z,95637.81
2023-01-04T15:40:45.845Z,95627.59
2023-01-04T15:43:17.386Z,95642.25
2023-01-04T15:45:45.930Z,95638.41
2023-01-04T15:48:13.945Z,95632.75
2023-01-04T15:53:30.345Z,95634.28
2023-01-04T15:56:04.880Z,95644.03
2023-01-04T15:58:39.694Z,95643.75
2023-01-04T16:01:12.472Z,95630.47
2023-01-04T16:06:23.482Z,95644.84
2023-01-04T16:08:50.507Z,95637.03
2023-01-04T16:11:25.115Z,95635.50
2023-01-04T16:13:53.812Z,95639.66
2023-01-04T16:16:38.163Z,95640.47
2023-01-04T16:19:05.174Z,95639.94
2023-01-04T16:21:36.271Z,95636.69
2023-01-04T16:24:09.488Z,95643.91
2023-01-04T16:26:43.162Z,95645.50
2023-01-04T16:29:16.994Z,95640.34
2023-01-04T16:31:46.742Z,95650.16
2023-01-04T16:34:16.952Z,95650.16
2023-01-04T16:36:43.882Z,95647.44
2023-01-04T16:39:13.533Z,95647.34
2023-01-04T16:41:41.414Z,95639.34
2023-01-04T16:44:12.081Z,95641.19
2023-01-04T16:46:42.833Z,95644.88
2023-01-04T16:49:16.267Z,95636.16
2023-01-04T16:51:44.877Z,95652.66
2023-01-04T16:57:02.507Z,95657.00
2023-01-04T16:59:36.153Z,95658.44
2023-01-04T17:02:03.260Z,95660.03
2023-01-04T17:04:32.716Z,95651.19
2023-01-04T17:06:59.898Z,95657.91
2023-01-04T17:09:33.997Z,95652.72
2023-01-04T17:15:00.801Z,95658.44
2023-01-04T17:17:41.688Z,95655.34
2023-01-04T17:20:13.879Z,95658.34
2023-01-04T17:22:41.908Z,95655.66
2023-01-04T17:25:08.672Z,95651.78
2023-01-04T17:27:38.222Z,95653.09
2023-01-04T17:30:08.697Z,95659.53
2023-01-04T17:32:35.468Z,95646.03
2023-01-04T17:35:02.926Z,95660.31
2023-01-04T17:37:30.321Z,95667.19
2023-01-04T17:40:02.133Z,95661.09
2023-01-04T17:42:28.897Z,95665.06
2023-01-04T17:45:01.614Z,95661.00
2023-01-04T17:47:30.697Z,95667.00
2023-01-04T17:49:58.661Z,95661.97
2023-01-04T17:52:31.182Z,95650.94
2023-01-04T17:55:01.327Z,95658.06
2023-01-04T17:57:30.834Z,95658.50
2023-01-04T17:59:58.459Z,95667.44
2023-01-04T18:02:25.483Z,95660.38
2023-01-04T18:04:52.564Z,95656.78
2023-01-04T18:07:20.096Z,95659.25
2023-01-04T18:09:49.219Z,95656.53
2023-01-04T18:12:21.675Z,95662.25
2023-01-04T18:14:48.801Z,95662.38
2023-01-04T18:17:15.899Z,95654.19
2023-01-04T18:19:46.252Z,95651.84
2023-01-04T18:22:13.498Z,95650.84
2023-01-04T18:24:43.129Z,95649.19
2023-01-04T18:27:26.738Z,95658.03
2023-01-04T18:29:55.688Z,95658.97
2023-01-04T18:32:23.084Z,95650.22
2023-01-04T18:34:54.025Z,95648.53
2023-01-04T18:40:02.664Z,95639.94
2023-01-04T18:42:30.111Z,95638.13
2023-01-04T18:44:59.680Z,95629.88
2023-01-04T18:47:26.702Z,95632.03
2023-01-04T18:49:54.192Z,95634.63
2023-01-04T18:52:21.058Z,95632.09
2023-01-04T18:54:49.116Z,95630.09
2023-01-04T18:57:16.327Z,95630.47
2023-01-04T18:59:46.066Z,95633.38
2023-01-04T19:02:16.966Z,95643.81
2023-01-04T19:04:50.007Z,95644.84
2023-01-04T19:07:17.065Z,95656.38
2023-01-04T19:09:44.280Z,95646.16
2023-01-04T19:12:12.456Z,95645.91
2023-01-04T19:14:39.519Z,95651.69
2023-01-04T19:17:06.648Z,95649.13
2023-01-04T19:19:37.679Z,95647.75
2023-01-04T19:22:04.685Z,95643.41
2023-01-04T19:24:34.527Z,95648.41
2023-01-04T19:27:01.649Z,95648.97
2023-01-04T19:29:30.115Z,95648.06
2023-01-04T19:31:57.612Z,95647.25
2023-01-04T19:34:27.564Z,95652.06
2023-01-04T19:36:54.508Z,95642.59
2023-01-04T19:39:24.317Z,95647.44
2023-01-04T19:41:51.046Z,95636.94
2023-01-04T19:44:20.742Z,95634.63
2023-01-04T19:46:49.100Z,95638.84
2023-01-04T19:49:16.089Z,95638.19
2023-01-04T19:51:43.396Z,95637.50
2023-01-04T19:54:10.667Z,95643.59
2023-01-04T19:56:37.432Z,95636.47
2023-01-04T19:59:05.300Z,95633.91
2023-01-04T20:01:38.282Z,95643.59
2023-01-04T20:04:06.325Z,95637.56
2023-01-04T20:06:33.445Z,95637.50
2023-01-04T20:09:00.511Z,95640.72
2023-01-04T20:11:27.259Z,95639.19
2023-01-04T20:13:54.972Z,95639.13
2023-01-04T20:16:22.418Z,95637.38
2023-01-04T20:18:55.053Z,95636.78
2023-01-04T20:21:23.783Z,95629.03
2023-01-04T20:23:51.196Z,95631.16
2023-01-04T20:26:24.105Z,95633.66
2023-01-04T20:28:53.072Z,95634.84
2023-01-04T20:31:22.826Z,95632.59
2023-01-04T20:33:52.545Z,95626.72
2023-01-04T20:36:30.498Z,95630.16
2023-01-04T20:38:58.424Z,95629.97
2023-01-04T20:41:28.202Z,95635.69
2023-01-04T20:43:57.982Z,95615.69
2023-01-04T20:46:26.609Z,95620.25
2023-01-04T20:48:54.175Z,95625.94
2023-01-04T20:51:26.325Z,95622.19
2023-01-04T20:53:53.532Z,95617.59
2023-01-04T20:56:24.867Z,95614.47
2023-01-04T20:58:53.114Z,95605.91
2023-01-04T21:01:21.285Z,95607.94
2023-01-04T21:03:48.282Z,95596.38
2023-01-04T21:06:18.077Z,95593.03
2023-01-04T21:08:47.826Z,95593.50
2023-01-04T21:11:14.622Z,95597.69
2023-01-04T21:13:44.550Z,95599.44
2023-01-04T21:16:11.662Z,95591.19
2023-01-04T21:18:38.741Z,95590.84
2023-01-04T21:21:15.914Z,95604.16
2023-01-04T21:23:43.583Z,95599.84
2023-01-04T21:26:21.977Z,95598.03
2023-01-04T21:28:49.763Z,95590.03
2023-01-04T21:31:21.775Z,95591.28
2023-01-04T21:33:52.093Z,95591.41
2023-01-04T21:36:20.985Z,95582.41
2023-01-04T21:38:51.072Z,95570.91
2023-01-04T21:41:18.388Z,95578.63
2023-01-04T21:43:48.044Z,95576.59
2023-01-04T21:46:22.548Z,95580.06
2023-01-04T21:48:56.341Z,95580.09
2023-01-04T21:51:25.307Z,95579.66
2023-01-04T21:53:52.439Z,95575.59
2023-01-04T21:56:20.496Z,95562.31
2023-01-04T21:58:53.329Z,95567.16
2023-01-04T22:01:32.410Z,95556.16
2023-01-04T22:04:01.487Z,95552.28
2023-01-04T22:06:28.264Z,95554.69
2023-01-04T22:08:56.236Z,95546.56
2023-01-04T22:11:23.197Z,95546.31
2023-01-04T22:13:56.167Z,95544.56
2023-01-04T22:16:25.971Z,95543.47
2023-01-04T22:18:55.520Z,95540.00
2023-01-04T22:21:27.808Z,95540.44
2023-01-04T22:24:01.107Z,95547.56
2023-01-04T22:26:28.557Z,95551.25
2023-01-04T22:28:58.288Z,95557.91
2023-01-04T22:31:25.328Z,95552.06
2023-01-04T22:33:52.924Z,95543.66
2023-01-04T22:36:23.339Z,95541.94
2023-01-04T22:38:57.687Z,95546.25
2023-01-04T22:41:26.587Z,95549.03
2023-01-04T22:44:00.349Z,95542.81
2023-01-04T22:46:36.218Z,95540.53
2023-01-04T22:49:04.015Z,95539.59
2023-01-04T22:51:31.465Z,95535.66
2023-01-04T22:53:59.950Z,95540.81
2023-01-04T22:56:27.189Z,95544.00
2023-01-04T22:58:57.401Z,95540.16
2023-01-04T23:01:29.094Z,95540.97
2023-01-04T23:03:56.716Z,95543.28
2023-01-04T23:06:24.514Z,95545.75
2023-01-04T23:08:59.432Z,95555.56
2023-01-04T23:11:29.493Z,95544.81
2023-01-04T23:13:56.636Z,95546.56
2023-01-04T23:16:31.936Z,95556.91
2023-01-04T23:19:00.521Z,95553.31
2023-01-04T23:21:28.464Z,95556.34
2023-01-04T23:23:58.594Z,95557.34
2023-01-04T23:26:26.137Z,95548.72
2023-01-04T23:28:53.175Z,95549.91
2023-01-04T23:31:22.404Z,95550.09
2023-01-04T23:33:56.643Z,95547.16
2023-01-04T23:36:28.676Z,95540.78
2023-01-04T23:38:59.456Z,95537.75
2023-01-04T23:41:29.154Z,95540.03
2023-01-04T23:43:56.675Z,95540.00
2023-01-04T23:46:23.575Z,95548.72
2023-01-04T23:48:55.585Z,95547.09
2023-01-04T23:51:23.387Z,95548.84
2023-01-04T23:53:50.065Z,95549.47
2023-01-04T23:56:16.758Z,95553.09
2023-01-04T23:58:44.663Z,95550.66
